Time;durP1;ratioP1;P1;durP2;ratioP2;P2;SDS_P1;SDS_P2;PMS_P1;PMS_P2;Temp;Humidity;BMP_temperature;BMP_pressure;BME280_temperature;BME280_humidity;BME280_pressure;Samples;Min_cycle;Max_cycle;Signal;HPM_P1;HPM_P2
2022/02/10 00:20:34;;;;;;;10.67;6.17;;;5.10;86.50;;;;;;5032119;28;20962;-73
2022/02/10 00:36:26;;;;;;;10.83;5.30;;;5.00;86.60;;;;;;5020740;28;20531;-73
2022/02/10 00:41:38;;;;;;;13.50;5.73;;;4.90;86.60;;;;;;5018107;28;20443;-70
2022/02/10 00:44:04;;;;;;;10.50;5.93;;;4.90;86.80;;;;;;5028594;28;20428;-73
2022/02/10 00:46:29;;;;;;;9.60;4.97;;;4.90;86.80;;;;;;5027506;28;20576;-72
2022/02/10 00:48:55;;;;;;;10.53;5.30;;;4.90;86.20;;;;;;5028665;28;20431;-74
2022/02/10 00:51:21;;;;;;;9.53;4.40;;;4.90;86.00;;;;;;5029508;28;20197;-73
2022/02/10 00:53:47;;;;;;;10.90;4.43;;;4.90;86.00;;;;;;5031218;28;20231;-72
2022/02/10 00:56:14;;;;;;;10.80;4.63;;;4.90;86.00;;;;;;5031156;28;20181;-72
2022/02/10 00:58:43;;;;;;;8.00;4.50;;;4.90;85.50;;;;;;5031390;28;20907;-72
2022/02/10 01:31:21;;;;;;;8.80;4.20;;;4.80;85.30;;;;;;4991035;28;20444;-73
2022/02/10 01:33:47;;;;;;;10.20;4.87;;;4.80;85.30;;;;;;4991193;28;20835;-73
2022/02/10 01:36:12;;;;;;;8.63;4.87;;;4.80;85.50;;;;;;4990676;28;20182;-70
2022/02/10 01:38:38;;;;;;;9.10;5.03;;;4.70;85.50;;;;;;4984547;28;20501;-71
2022/02/10 02:03:20;;;;;;;7.67;4.37;;;4.60;85.30;;;;;;5037766;28;20486;-72
2022/02/10 02:05:51;;;;;;;7.73;3.97;;;4.50;85.50;;;;;;5032445;28;20432;-73
2022/02/10 02:08:25;;;;;;;8.13;4.77;;;4.60;85.50;;;;;;5032773;28;20479;-71
2022/02/10 02:10:51;;;;;;;8.90;3.63;;;4.50;85.00;;;;;;5031112;28;20992;-72
2022/02/10 02:13:17;;;;;;;7.23;3.97;;;4.50;84.40;;;;;;5032182;28;20412;-71
2022/02/10 02:15:42;;;;;;;7.40;4.13;;;4.50;83.70;;;;;;5031275;28;20776;-73
2022/02/10 02:18:08;;;;;;;6.77;3.53;;;4.60;83.10;;;;;;5031285;28;20507;-72
2022/02/10 02:20:34;;;;;;;6.43;3.90;;;4.60;82.20;;;;;;5031312;28;20925;-73
2022/02/10 02:23:00;;;;;;;6.27;3.70;;;4.70;82.50;;;;;;5031886;28;20194;-73
2022/02/10 02:25:25;;;;;;;4.70;3.43;;;4.80;81.70;;;;;;5031158;28;20616;-71
2022/02/10 02:27:56;;;;;;;7.30;4.90;;;4.80;81.70;;;;;;5031175;28;20192;-73
2022/02/10 02:30:33;;;;;;;7.63;4.27;;;4.80;81.50;;;;;;5031288;28;20270;-74
2022/02/10 02:36:18;;;;;;;3.97;3.23;;;4.80;81.80;;;;;;5031284;28;20528;-71
2022/02/10 02:39:19;;;;;;;6.40;3.70;;;4.90;80.50;;;;;;5031110;28;21227;-72
2022/02/10 03:08:43;;;;;;;6.87;3.57;;;4.70;81.20;;;;;;5030130;28;20494;-72
2022/02/10 03:11:11;;;;;;;7.17;3.60;;;4.70;81.40;;;;;;5030569;28;20490;-72
2022/02/10 03:13:44;;;;;;;5.53;3.83;;;4.70;81.20;;;;;;5030887;28;20424;-73
2022/02/10 04:07:52;;;;;;;5.77;3.67;;;5.10;76.50;;;;;;5009575;28;21328;-73
2022/02/10 04:15:55;;;;;;;7.03;3.47;;;5.00;77.00;;;;;;4999147;28;20502;-73
2022/02/10 04:29:38;;;;;;;6.90;3.60;;;5.10;77.30;;;;;;4989441;28;20645;-73
2022/02/10 04:39:24;;;;;;;11.30;3.67;;;5.60;75.40;;;;;;4953841;28;20414;-71
2022/02/10 05:06:01;;;;;;;8.50;3.40;;;5.60;75.50;;;;;;4940444;28;20921;-73
2022/02/10 05:08:04;;;;;;;8.47;3.77;;;5.60;75.80;;;;;;5030837;28;20443;-74
2022/02/10 05:21:15;;;;;;;7.20;3.50;;;5.60;76.50;;;;;;5036054;28;20454;-73
2022/02/10 05:34:25;;;;;;;5.73;3.73;;;5.50;77.10;;;;;;5027404;28;20446;-73
2022/02/10 05:36:53;;;;;;;6.00;3.60;;;5.50;77.30;;;;;;5030700;28;20416;-72
2022/02/10 05:39:24;;;;;;;7.27;3.77;;;5.50;77.40;;;;;;5030900;28;20515;-71
2022/02/10 05:55:37;;;;;;;9.20;3.53;;;5.50;77.60;;;;;;5025966;28;20424;-72
2022/02/10 05:57:42;;;;;;;6.03;3.70;;;5.60;77.10;;;;;;5031672;28;20509;-73
2022/02/10 06:01:06;;;;;;;10.27;4.50;;;5.60;76.70;;;;;;5026556;28;20494;-73
2022/02/10 06:49:38;;;;;;;9.90;3.23;;;6.20;74.90;;;;;;5035519;28;20460;-73
2022/02/10 06:52:17;;;;;;;9.57;4.13;;;6.10;75.40;;;;;;5036947;28;20416;-71
2022/02/10 06:55:11;;;;;;;13.13;3.57;;;6.10;75.80;;;;;;5033114;28;20417;-74
2022/02/10 07:51:32;;;;;;;11.50;4.60;;;7.00;73.30;;;;;;5030329;28;21124;-72
2022/02/10 07:54:07;;;;;;;7.13;3.57;;;7.10;72.60;;;;;;5030050;28;20942;-72
2022/02/10 09:16:46;;;;;;;7.90;4.40;;;9.00;69.20;;;;;;5027423;28;20419;-72
2022/02/10 09:19:37;;;;;;;12.20;4.20;;;9.30;68.90;;;;;;5031471;28;20415;-71
2022/02/10 10:04:43;;;;;;;13.20;4.40;;;11.20;63.80;;;;;;5030397;28;20447;-72
2022/02/10 10:07:29;;;;;;;6.60;4.10;;;11.20;63.80;;;;;;5035547;28;20427;-72
2022/02/10 10:15:34;;;;;;;8.63;5.13;;;11.20;63.70;;;;;;5034986;28;20420;-72
2022/02/10 10:18:42;;;;;;;7.40;4.30;;;11.30;63.70;;;;;;5030506;28;20434;-73
2022/02/10 10:21:20;;;;;;;9.97;4.13;;;11.40;63.40;;;;;;5026660;28;20566;-73
2022/02/10 10:24:48;;;;;;;8.00;4.23;;;11.50;62.90;;;;;;5031988;28;20436;-73
2022/02/10 10:51:37;;;;;;;13.30;5.13;;;13.10;58.70;;;;;;5031964;28;20464;-72
2022/02/10 10:56:36;;;;;;;10.03;5.10;;;13.00;58.50;;;;;;5030921;28;20897;-72
2022/02/10 11:43:52;;;;;;;11.50;5.70;;;12.30;62.20;;;;;;5034213;28;20435;-73
2022/02/10 12:31:05;;;;;;;10.23;7.10;;;11.60;65.10;;;;;;5029274;28;20410;-71
2022/02/10 14:15:51;;;;;;;20.43;8.30;;;8.70;81.50;;;;;;5032286;28;21091;-73
2022/02/10 14:21:08;;;;;;;16.13;7.27;;;8.90;81.40;;;;;;5032511;28;20910;-72
2022/02/10 14:26:30;;;;;;;17.20;8.67;;;8.90;81.20;;;;;;5032664;28;20428;-73
2022/02/10 14:28:56;;;;;;;17.90;8.30;;;8.80;81.20;;;;;;5032650;28;20892;-73
2022/02/10 14:31:22;;;;;;;15.70;8.57;;;8.90;81.20;;;;;;5032235;28;20475;-72
2022/02/10 14:33:49;;;;;;;15.60;8.00;;;8.90;80.90;;;;;;5033407;28;20994;-73
2022/02/10 14:36:25;;;;;;;15.73;7.73;;;8.90;80.80;;;;;;5034016;28;20181;-74
2022/02/10 14:42:07;;;;;;;20.20;7.90;;;8.90;80.20;;;;;;5035788;28;20423;-72
2022/02/10 15:45:53;;;;;;;14.37;7.87;;;8.40;81.80;;;;;;5026686;28;20427;-72
2022/02/10 15:48:50;;;;;;;13.90;7.70;;;8.50;81.50;;;;;;5023137;28;20442;-73
2022/02/10 15:53:07;;;;;;;12.07;7.17;;;8.60;80.80;;;;;;5026725;28;20934;-73
2022/02/10 16:15:15;;;;;;;18.83;8.73;;;8.60;80.80;;;;;;5025971;28;20424;-75
2022/02/10 16:19:19;;;;;;;16.37;9.00;;;8.50;81.20;;;;;;5018811;28;20527;-74
2022/02/10 16:21:59;;;;;;;18.57;8.73;;;8.40;81.70;;;;;;5024386;28;20181;-73
2022/02/10 16:24:32;;;;;;;18.20;8.37;;;8.30;81.90;;;;;;5025343;28;20415;-73
2022/02/10 16:27:18;;;;;;;17.27;9.60;;;8.30;82.10;;;;;;5025628;28;20585;-74
2022/02/10 16:29:46;;;;;;;11.10;6.90;;;8.20;82.40;;;;;;5023305;28;21070;-74
2022/02/10 16:32:12;;;;;;;14.90;7.80;;;8.20;82.10;;;;;;5026414;28;20427;-73
2022/02/10 16:34:40;;;;;;;18.30;8.70;;;8.20;82.10;;;;;;5026066;28;20470;-73
2022/02/10 16:37:10;;;;;;;11.07;6.57;;;8.20;82.10;;;;;;5025271;28;20419;-75
2022/02/10 16:39:40;;;;;;;14.57;7.20;;;8.30;81.70;;;;;;5017649;28;20440;-73
2022/02/10 16:42:09;;;;;;;13.00;5.30;;;8.30;79.70;;;;;;5023373;28;20470;-73
2022/02/10 16:44:36;;;;;;;8.30;4.57;;;8.40;75.80;;;;;;5024791;28;20525;-73
2022/02/10 16:47:02;;;;;;;8.20;5.23;;;8.40;75.50;;;;;;5025017;28;20792;-73
2022/02/10 16:49:28;;;;;;;8.00;4.40;;;8.40;74.30;;;;;;5026087;28;20542;-72
2022/02/10 16:51:55;;;;;;;5.90;4.13;;;8.50;73.60;;;;;;5026601;28;20577;-74
2022/02/10 17:26:29;;;;;;;5.70;3.00;;;8.60;69.50;;;;;;5028280;28;20847;-74
2022/02/10 17:28:54;;;;;;;7.80;3.80;;;8.60;69.70;;;;;;5026809;28;20811;-72
2022/02/10 17:36:43;;;;;;;7.23;4.00;;;8.70;69.90;;;;;;5033698;28;20435;-74
2022/02/10 17:52:57;;;;;;;5.80;3.43;;;8.50;70.10;;;;;;5030241;28;20517;-74
2022/02/10 17:55:23;;;;;;;7.27;3.57;;;8.50;70.50;;;;;;5030154;28;20420;-72
2022/02/10 17:57:49;;;;;;;7.30;4.70;;;8.60;70.50;;;;;;5030534;28;20413;-74
2022/02/10 18:00:17;;;;;;;6.00;3.97;;;8.60;70.40;;;;;;5030782;28;20478;-75
2022/02/10 18:02:45;;;;;;;9.13;3.93;;;8.70;70.10;;;;;;5029810;28;20193;-74
2022/02/10 18:05:26;;;;;;;11.13;4.20;;;8.60;70.20;;;;;;5026816;28;20423;-75
2022/02/10 18:07:52;;;;;;;6.17;3.60;;;8.60;70.40;;;;;;5034738;28;20427;-75
2022/02/10 18:10:59;;;;;;;9.00;3.77;;;8.60;70.70;;;;;;5034209;28;20813;-72
2022/02/10 18:13:31;;;;;;;10.43;4.17;;;8.60;70.50;;;;;;5030316;28;20188;-75
2022/02/10 18:16:02;;;;;;;6.43;4.07;;;8.60;70.70;;;;;;5028814;28;20432;-74
2022/02/10 18:18:41;;;;;;;7.60;4.40;;;8.50;71.10;;;;;;5030215;28;20424;-75
2022/02/10 18:21:28;;;;;;;10.33;4.30;;;8.60;71.30;;;;;;5026039;28;20487;-73
2022/02/10 19:10:25;;;;;;;7.37;4.50;;;8.40;73.60;;;;;;5026748;28;20503;-73
2022/02/10 19:12:57;;;;;;;13.03;4.50;;;8.40;73.30;;;;;;5028151;28;20409;-75
2022/02/10 19:15:33;;;;;;;6.97;4.00;;;8.40;73.50;;;;;;5022581;28;20428;-74
2022/02/10 19:18:01;;;;;;;5.83;3.93;;;8.30;73.60;;;;;;5026926;28;20509;-74
2022/02/10 19:20:27;;;;;;;7.23;4.87;;;8.30;74.00;;;;;;5027798;28;20444;-73
2022/02/10 19:22:53;;;;;;;6.90;4.53;;;8.40;74.00;;;;;;5027844;28;20474;-73
2022/02/10 19:25:20;;;;;;;12.43;5.73;;;8.40;74.00;;;;;;5026932;28;20944;-74
2022/02/10 19:27:50;;;;;;;9.13;5.27;;;8.40;73.70;;;;;;5028132;28;20455;-74
2022/02/10 19:30:20;;;;;;;8.40;5.10;;;8.40;73.70;;;;;;5026685;28;20479;-75
2022/02/10 19:32:52;;;;;;;12.23;4.87;;;8.40;73.90;;;;;;5026805;28;20420;-75
2022/02/10 19:35:21;;;;;;;8.17;4.60;;;8.40;73.70;;;;;;5024495;28;20502;-74
2022/02/10 19:37:52;;;;;;;8.13;4.20;;;8.30;74.20;;;;;;5026929;28;20436;-73
2022/02/10 19:40:18;;;;;;;7.13;4.40;;;8.30;74.30;;;;;;5028304;28;20456;-73
2022/02/10 19:42:46;;;;;;;7.40;4.20;;;8.30;74.50;;;;;;5028423;28;20430;-73
2022/02/10 19:45:12;;;;;;;9.13;4.30;;;8.20;74.80;;;;;;5030448;28;20181;-75
2022/02/10 19:47:38;;;;;;;5.43;4.53;;;8.20;74.90;;;;;;5029920;28;20439;-74
2022/02/10 19:50:15;;;;;;;5.90;4.20;;;8.20;75.10;;;;;;5026798;28;20205;-75
2022/02/10 19:52:49;;;;;;;8.73;4.87;;;8.10;75.20;;;;;;5027049;28;20512;-74
2022/02/10 19:55:20;;;;;;;9.93;4.70;;;8.10;75.70;;;;;;5033396;28;20427;-74
2022/02/10 19:57:47;;;;;;;9.80;5.10;;;8.00;75.70;;;;;;5036962;28;21090;-73
2022/02/10 20:00:19;;;;;;;8.83;3.90;;;8.00;76.10;;;;;;5033694;28;20463;-75
2022/02/10 20:02:45;;;;;;;6.33;4.70;;;8.00;75.90;;;;;;5027142;28;20424;-74
2022/02/10 20:05:11;;;;;;;10.63;4.30;;;8.10;75.90;;;;;;5025151;28;20489;-75
2022/02/10 20:07:38;;;;;;;8.17;4.37;;;8.10;75.80;;;;;;5022360;28;20477;-74
2022/02/10 20:10:05;;;;;;;6.20;4.37;;;8.10;75.80;;;;;;5022938;28;20468;-73
2022/02/10 20:12:32;;;;;;;7.00;4.27;;;8.10;75.80;;;;;;5026351;28;20431;-75
2022/02/10 20:14:57;;;;;;;14.00;4.27;;;8.00;75.90;;;;;;5027449;28;20420;-75
2022/02/10 20:17:23;;;;;;;8.00;5.00;;;8.00;75.90;;;;;;5027367;28;20796;-72
2022/02/10 20:19:49;;;;;;;8.77;5.27;;;8.00;76.20;;;;;;5025796;28;20201;-74
2022/02/10 20:22:15;;;;;;;11.37;5.20;;;8.00;76.20;;;;;;5025561;28;20419;-73
2022/02/10 20:24:41;;;;;;;8.10;5.00;;;8.00;76.20;;;;;;5024252;28;20181;-75
2022/02/10 20:27:07;;;;;;;10.00;5.17;;;8.00;76.40;;;;;;5025955;28;20489;-73
2022/02/10 20:29:34;;;;;;;7.73;5.00;;;8.00;76.40;;;;;;5026660;28;20474;-73
2022/02/10 20:32:00;;;;;;;7.40;5.10;;;8.10;76.20;;;;;;5026380;28;20474;-74
2022/02/10 20:34:29;;;;;;;10.60;5.33;;;8.10;76.10;;;;;;5023567;28;20424;-75
2022/02/10 20:36:56;;;;;;;6.50;4.20;;;8.10;76.40;;;;;;5021140;28;20565;-74
2022/02/10 20:39:26;;;;;;;12.37;6.23;;;8.20;76.40;;;;;;5026374;28;20513;-73
2022/02/10 20:41:59;;;;;;;7.40;4.80;;;8.20;76.20;;;;;;5026343;28;21117;-73
2022/02/10 20:44:25;;;;;;;7.50;4.90;;;8.30;76.40;;;;;;5025017;28;20423;-74
2022/02/10 20:46:52;;;;;;;8.73;5.23;;;8.30;76.20;;;;;;5023911;28;20451;-76
2022/02/10 20:49:18;;;;;;;9.83;5.90;;;8.30;76.40;;;;;;5024867;28;20214;-74
2022/02/10 20:51:45;;;;;;;7.53;4.43;;;8.30;76.40;;;;;;5024443;28;20506;-75
2022/02/10 20:54:12;;;;;;;10.07;4.83;;;8.30;76.40;;;;;;5026001;28;20416;-74
2022/02/10 20:56:37;;;;;;;9.90;4.90;;;8.30;76.40;;;;;;5024907;28;20424;-74
2022/02/10 20:59:18;;;;;;;8.30;4.77;;;8.20;76.70;;;;;;5026125;28;20485;-74
2022/02/10 21:01:44;;;;;;;7.37;4.40;;;8.20;76.80;;;;;;5024843;28;20185;-75
2022/02/10 21:04:10;;;;;;;9.37;4.80;;;8.20;77.00;;;;;;5024458;28;20422;-75
2022/02/10 21:09:15;;;;;;;7.33;5.00;;;8.10;77.40;;;;;;5026639;28;20423;-74
2022/02/10 21:11:41;;;;;;;9.57;5.27;;;8.20;77.40;;;;;;5028669;28;20472;-74
2022/02/10 21:14:14;;;;;;;9.10;5.23;;;8.20;77.60;;;;;;5031206;28;20470;-74
2022/02/10 21:16:42;;;;;;;7.73;5.33;;;8.20;77.40;;;;;;5029270;28;20178;-74
2022/02/10 21:19:10;;;;;;;6.50;4.77;;;8.20;77.40;;;;;;5028704;28;20451;-73
2022/02/10 21:21:36;;;;;;;8.93;5.30;;;8.20;77.30;;;;;;5030186;28;20519;-75
2022/02/10 21:24:08;;;;;;;9.47;5.47;;;8.20;77.30;;;;;;5026483;28;20518;-75
2022/02/10 21:26:43;;;;;;;11.43;5.07;;;8.20;77.30;;;;;;5028962;28;20183;-75
2022/02/10 21:29:09;;;;;;;10.70;5.03;;;8.20;77.40;;;;;;5028663;28;20427;-74
2022/02/10 21:31:43;;;;;;;10.50;6.23;;;8.20;77.60;;;;;;5026678;28;20585;-74
2022/02/10 21:34:18;;;;;;;9.87;5.63;;;8.20;77.60;;;;;;5019727;28;20213;-74
2022/02/10 21:37:01;;;;;;;12.40;6.57;;;8.20;77.60;;;;;;5027746;28;20845;-73
2022/02/10 21:39:43;;;;;;;9.10;5.30;;;8.30;77.60;;;;;;5027533;28;20426;-73
2022/02/10 22:11:25;;;;;;;7.60;4.63;;;8.40;77.40;;;;;;4987594;28;20673;-74
2022/02/10 22:19:10;;;;;;;9.00;5.57;;;8.40;77.00;;;;;;4986632;28;20601;-72
2022/02/10 22:21:47;;;;;;;10.87;5.90;;;8.50;76.80;;;;;;4987160;28;20418;-72
2022/02/10 22:24:15;;;;;;;8.67;5.60;;;8.40;77.10;;;;;;4982752;28;20828;-73
2022/02/10 22:26:42;;;;;;;9.83;5.90;;;8.40;77.00;;;;;;4981329;28;20644;-73
2022/02/10 22:29:18;;;;;;;10.60;5.23;;;8.40;76.80;;;;;;4981864;28;20461;-73
2022/02/10 22:34:38;;;;;;;9.30;6.50;;;8.50;76.80;;;;;;4984907;28;20488;-74
2022/02/10 22:37:04;;;;;;;10.40;6.00;;;8.50;76.70;;;;;;4990681;28;20563;-73
2022/02/10 22:39:34;;;;;;;9.90;6.57;;;8.50;76.80;;;;;;5025223;28;20528;-73
2022/02/10 22:42:01;;;;;;;10.23;5.90;;;8.40;77.00;;;;;;5028916;28;20428;-73
2022/02/10 22:44:27;;;;;;;11.23;6.63;;;8.50;77.30;;;;;;5024251;28;20749;-73
2022/02/10 22:46:52;;;;;;;8.83;5.77;;;8.50;77.10;;;;;;5021342;28;20447;-72
2022/02/10 22:49:18;;;;;;;9.10;6.30;;;8.50;77.40;;;;;;5027973;28;20431;-73
2022/02/10 22:51:44;;;;;;;10.80;5.87;;;8.50;77.30;;;;;;5027074;28;20288;-72
2022/02/10 22:54:13;;;;;;;8.80;5.60;;;8.60;76.80;;;;;;5039675;28;20203;-75
2022/02/10 22:56:40;;;;;;;11.90;5.60;;;8.50;77.00;;;;;;5039982;28;20221;-74
2022/02/10 22:59:08;;;;;;;9.90;5.10;;;8.60;76.80;;;;;;5030930;28;20598;-75
2022/02/10 23:01:35;;;;;;;9.83;5.73;;;8.50;76.80;;;;;;5029729;28;20460;-73
2022/02/10 23:04:02;;;;;;;10.10;5.47;;;8.40;77.10;;;;;;5029650;28;20510;-72
2022/02/10 23:06:28;;;;;;;8.90;5.17;;;8.40;77.30;;;;;;5025514;28;21298;-73
2022/02/10 23:08:54;;;;;;;9.43;5.93;;;8.40;77.00;;;;;;5028447;28;20428;-73
2022/02/10 23:11:28;;;;;;;8.07;4.87;;;8.40;76.80;;;;;;5029174;28;20215;-73
2022/02/10 23:13:57;;;;;;;7.70;5.07;;;8.40;77.10;;;;;;5029615;28;20411;-74
2022/02/10 23:16:23;;;;;;;10.40;6.60;;;8.40;77.10;;;;;;5027094;28;20490;-73
2022/02/10 23:18:49;;;;;;;9.07;5.40;;;8.40;77.10;;;;;;5029102;28;20492;-74
2022/02/10 23:21:15;;;;;;;9.07;5.70;;;8.30;77.40;;;;;;5022877;28;20506;-73
2022/02/10 23:23:51;;;;;;;11.80;6.20;;;8.30;77.40;;;;;;5027549;28;20850;-73
2022/02/10 23:26:19;;;;;;;12.60;6.10;;;8.30;77.80;;;;;;5024660;28;20466;-73
2022/02/10 23:28:51;;;;;;;9.47;6.33;;;8.30;77.70;;;;;;5027117;28;20431;-73
2022/02/10 23:31:18;;;;;;;9.50;5.70;;;8.40;77.40;;;;;;5027290;28;20481;-74
2022/02/10 23:33:51;;;;;;;9.40;5.70;;;8.40;77.40;;;;;;5024988;28;20426;-74
2022/02/10 23:39:17;;;;;;;9.37;5.60;;;8.30;77.70;;;;;;5020677;28;20426;-73
2022/02/10 23:44:37;;;;;;;13.70;5.03;;;8.30;77.80;;;;;;5029874;28;20416;-74
2022/02/10 23:47:02;;;;;;;12.80;5.20;;;8.20;78.00;;;;;;5029898;28;20451;-72
2022/02/10 23:49:30;;;;;;;11.10;5.30;;;8.30;78.10;;;;;;5028987;28;20426;-75
2022/02/10 23:52:00;;;;;;;7.83;5.27;;;8.30;78.00;;;;;;5019439;28;20467;-74
2022/02/10 23:54:28;;;;;;;10.03;5.57;;;8.30;78.30;;;;;;5026239;28;20424;-71
2022/02/10 23:57:01;;;;;;;7.97;4.90;;;8.30;78.60;;;;;;5026001;28;20516;-72
